createdAt,value
2024-02-18T07:00:01.319Z,1364.2
2024-02-18T07:01:01.281Z,1418.9
2024-02-18T07:02:01.157Z,1473.5
2024-02-18T07:03:01.123Z,1528.2
2024-02-18T07:04:01.769Z,1579.8
2024-02-18T07:05:01.308Z,1631.4
2024-02-18T07:06:01.239Z,1699.7
2024-02-18T07:07:01.143Z,1768.1
2024-02-18T07:08:01.121Z,1836.4
2024-02-18T07:09:05.737Z,1914.3
2024-02-18T07:10:01.268Z,1992.3
2024-02-18T07:11:01.119Z,2148.1
2024-02-18T07:12:01.154Z,2304.0
2024-02-18T07:13:02.243Z,2459.9
2024-02-18T07:14:01.914Z,2562.7
2024-02-18T07:15:01.166Z,2665.5
2024-02-18T07:16:01.190Z,2739.5
2024-02-18T07:17:01.111Z,2813.6
2024-02-18T07:18:01.126Z,2887.7
2024-02-18T07:19:03.004Z,2923.0
2024-02-18T07:20:01.584Z,2958.3
2024-02-18T07:21:01.223Z,2985.5
2024-02-18T07:22:01.190Z,3012.7
2024-02-18T07:23:01.265Z,3039.9
2024-02-18T07:24:01.436Z,3095.9
2024-02-18T07:26:01.139Z,3153.9
2024-02-18T07:27:01.108Z,3121.3
2024-02-18T07:28:01.134Z,3088.8
2024-02-18T07:29:01.464Z,3056.0
2024-02-18T07:30:02.161Z,3058.4
2024-02-18T07:31:01.177Z,3049.1
2024-02-18T07:32:01.230Z,3073.6
2024-02-18T07:33:01.193Z,3098.1
2024-02-18T07:34:01.156Z,3184.5
2024-02-18T07:35:02.861Z,3301.3
2024-02-18T07:36:01.292Z,3510.5
2024-02-18T07:37:01.202Z,3693.6
2024-02-18T07:38:01.123Z,3876.7
2024-02-18T07:39:01.109Z,4240.3
2024-02-18T07:40:02.196Z,4565.2
2024-02-18T07:41:01.163Z,4823.9
2024-02-18T07:42:01.112Z,5082.5
2024-02-18T07:43:01.138Z,5341.2
2024-02-18T07:44:01.155Z,5542.5
2024-02-18T07:45:03.178Z,5743.7
2024-02-18T07:46:01.286Z,5909.3
2024-02-18T07:47:01.129Z,6074.9
2024-02-18T07:48:01.231Z,6240.5
2024-02-18T07:49:01.288Z,6403.6
2024-02-18T07:50:02.748Z,6566.7
2024-02-18T07:51:01.200Z,6857.5
2024-02-18T07:52:01.267Z,7148.4
2024-02-18T07:53:01.141Z,7439.3
2024-02-18T07:54:01.188Z,7548.1
2024-02-18T07:55:01.462Z,7657.0
2024-02-18T07:56:01.172Z,7950.9
2024-02-18T07:57:01.412Z,8244.7
2024-02-18T07:58:01.197Z,8538.6
2024-02-18T07:59:01.208Z,8999.8
2024-02-18T08:00:08.598Z,9461.0
2024-02-18T08:01:01.269Z,10097.4
2024-02-18T08:02:01.259Z,10733.8
2024-02-18T08:03:01.497Z,11370.2
2024-02-18T08:04:01.321Z,11880.6
2024-02-18T08:05:16.211Z,12391.0
2024-02-18T08:06:02.601Z,12705.1
2024-02-18T08:07:02.334Z,13019.1
2024-02-18T08:08:01.143Z,13333.2
2024-02-18T08:25:03.069Z,18897.0
2024-02-18T08:27:00.325Z,19024.0
2024-02-18T08:28:00.254Z,19087.5
2024-02-18T08:29:00.224Z,18555.6
2024-02-18T08:30:01.490Z,18201.0
2024-02-18T08:31:00.175Z,17947.7
2024-02-18T08:32:00.156Z,17034.0
2024-02-18T08:33:00.202Z,16323.3
2024-02-18T08:34:00.403Z,16200.5
2024-02-18T08:35:00.563Z,16100.0
2024-02-18T08:36:00.231Z,16016.3
2024-02-18T08:37:00.242Z,15761.8
2024-02-18T08:38:00.148Z,15543.8
2024-02-18T08:39:00.308Z,15794.1
2024-02-18T08:40:00.778Z,15820.8
2024-02-18T08:41:00.201Z,15847.5
2024-02-18T08:42:00.230Z,15831.5
2024-02-18T08:43:00.288Z,15815.4
2024-02-18T08:44:00.211Z,15976.3
2024-02-18T08:45:01.613Z,16137.1
2024-02-18T08:46:00.157Z,16298.0
2024-02-18T08:47:00.161Z,16867.3
2024-02-18T08:48:00.243Z,17436.7
2024-02-18T08:49:00.424Z,17555.5
2024-02-18T08:50:01.803Z,17674.4
2024-02-18T08:51:00.423Z,17793.3
2024-02-18T08:52:00.585Z,18170.9
2024-02-18T08:53:00.158Z,18548.5
2024-02-18T08:54:00.314Z,18573.5
2024-02-18T08:55:00.692Z,18598.6
2024-02-18T08:56:00.164Z,18623.7
2024-02-18T08:57:00.190Z,18733.8
2024-02-18T08:58:00.257Z,18843.9
2024-02-18T08:59:00.203Z,18989.9
2024-02-18T09:00:05.544Z,19135.9
2024-02-18T09:01:00.276Z,19281.9
2024-02-18T09:02:01.641Z,19572.6
2024-02-18T09:03:00.158Z,19863.3
2024-02-18T09:04:00.388Z,19936.3
2024-02-18T09:05:03.205Z,20009.3
2024-02-18T09:06:00.212Z,20082.3
2024-02-18T09:07:00.167Z,20245.1
2024-02-18T09:08:00.157Z,20407.9
2024-02-18T09:09:00.285Z,20608.7
2024-02-18T09:10:01.629Z,20809.6
2024-02-18T09:11:00.235Z,21010.5
2024-02-18T09:12:00.179Z,21052.6
2024-02-18T09:13:00.375Z,21094.7
2024-02-18T09:14:00.227Z,21285.1
2024-02-18T09:15:02.289Z,21475.5
2024-02-18T09:16:00.262Z,21665.9
2024-02-18T09:17:00.242Z,21770.1
2024-02-18T09:18:00.233Z,21874.2
2024-02-18T09:19:00.414Z,22214.9
2024-02-18T09:20:02.841Z,22555.5
2024-02-18T09:21:00.252Z,22896.2
2024-02-18T09:22:00.257Z,22995.5
2024-02-18T09:23:00.168Z,23094.7
2024-02-18T09:24:00.221Z,23000.8
2024-02-18T09:25:00.579Z,22906.9
2024-02-18T09:26:00.184Z,22812.9
2024-02-18T09:27:00.239Z,23083.8
2024-02-18T09:28:00.198Z,23354.7
2024-02-18T09:29:00.405Z,24134.1
2024-02-18T09:30:01.266Z,24913.5
2024-02-18T09:31:00.263Z,25692.9
2024-02-18T09:32:00.195Z,25753.3
2024-02-18T09:33:00.175Z,25813.8
2024-02-18T09:34:00.430Z,26251.0
2024-02-18T09:35:00.644Z,26688.2
2024-02-18T09:36:00.234Z,27125.4
2024-02-18T09:37:00.173Z,27695.7
2024-02-18T09:38:01.478Z,28266.1
2024-02-18T09:39:00.516Z,28704.5
2024-02-18T09:41:00.156Z,29581.3
2024-02-18T09:42:00.233Z,29868.0
2024-02-18T09:43:00.569Z,30154.7
2024-02-18T09:44:00.244Z,29552.7
2024-02-18T09:45:01.642Z,28950.7
2024-02-18T09:46:00.193Z,28348.7
2024-02-18T09:47:00.167Z,28258.6
2024-02-18T09:48:00.348Z,28168.5
2024-02-18T09:49:00.422Z,27906.1
2024-02-18T09:50:01.505Z,27643.7
2024-02-18T09:51:00.244Z,27381.3
2024-02-18T09:52:00.187Z,27278.1
2024-02-18T09:53:00.227Z,27175.0
2024-02-18T09:54:05.188Z,27197.7
2024-02-18T09:55:02.536Z,27220.5
2024-02-18T09:56:00.164Z,27243.2
2024-02-18T09:57:00.156Z,27397.1
2024-02-18T09:58:00.218Z,27550.9
2024-02-18T09:59:00.166Z,28176.2
2024-02-18T10:00:02.564Z,28801.5
2024-02-18T10:01:00.438Z,29426.7
2024-02-18T10:02:00.267Z,29936.3
2024-02-18T10:03:00.182Z,30445.8
2024-02-18T10:04:00.222Z,31252.3
2024-02-18T10:05:01.381Z,32058.7
2024-02-18T10:06:00.202Z,32865.2
2024-02-18T10:07:00.185Z,33164.9
2024-02-18T10:08:00.173Z,33464.7
2024-02-18T10:09:00.178Z,34280.3
2024-02-18T10:10:01.526Z,35095.9
2024-02-18T10:11:00.199Z,35911.5
2024-02-18T10:12:00.174Z,36465.9
2024-02-18T10:13:00.208Z,37020.4
2024-02-18T10:14:05.173Z,37158.4
2024-02-18T10:15:01.757Z,37296.4
2024-02-18T10:16:00.212Z,37434.4
2024-02-18T10:17:00.178Z,38062.5
2024-02-18T10:18:00.335Z,38690.7
2024-02-18T10:19:00.189Z,39215.1
2024-02-18T10:20:04.137Z,39739.6
2024-02-18T10:21:00.197Z,40264.1
2024-02-18T10:22:00.210Z,40943.1
2024-02-18T10:23:00.232Z,41622.1
2024-02-18T10:24:00.168Z,41493.3
2024-02-18T10:25:15.201Z,41364.5
2024-02-18T10:26:01.272Z,41235.7
2024-02-18T10:27:00.173Z,41659.6
2024-02-18T10:28:00.208Z,42083.5
2024-02-18T10:45:02.007Z,36148.0
2024-02-18T10:47:00.366Z,37391.3
2024-02-18T10:48:00.400Z,38013.0
2024-02-18T10:49:00.392Z,37548.0
2024-02-18T10:50:00.637Z,37238.0
2024-02-18T10:51:00.453Z,37016.6
2024-02-18T10:52:00.440Z,36884.4
2024-02-18T10:53:00.439Z,36781.6
2024-02-18T10:54:10.544Z,36587.4
2024-02-18T10:55:00.675Z,36428.5
2024-02-18T10:56:00.542Z,36296.2
2024-02-18T10:57:00.412Z,36385.6
2024-02-18T10:58:00.525Z,36462.3
2024-02-18T10:59:00.427Z,36524.3
2024-02-18T11:00:05.788Z,36607.2
2024-02-18T11:01:00.473Z,36690.1
2024-02-18T11:02:00.438Z,36323.8
2024-02-18T11:03:00.367Z,35957.5
2024-02-18T11:04:01.017Z,36083.3
2024-02-18T11:05:00.616Z,36209.2
2024-02-18T11:06:00.501Z,36335.1
2024-02-18T11:07:00.490Z,36257.8
2024-02-18T11:08:00.395Z,36180.5
2024-02-18T11:09:00.392Z,36346.5
2024-02-18T11:10:03.785Z,36512.4
2024-02-18T11:11:00.436Z,36678.3
2024-02-18T11:12:00.413Z,36362.1
2024-02-18T11:13:00.397Z,36045.8
2024-02-18T11:14:00.434Z,36166.3
2024-02-18T11:15:02.943Z,36286.7
2024-02-18T11:16:00.569Z,36407.2
2024-02-18T11:17:00.437Z,36501.7
2024-02-18T11:18:00.427Z,36596.1
2024-02-18T11:19:00.447Z,36903.4
2024-02-18T11:20:02.438Z,37210.7
2024-02-18T11:21:00.410Z,37517.9
2024-02-18T11:22:00.387Z,38349.5
2024-02-18T11:23:00.516Z,39181.0
2024-02-18T11:24:00.385Z,39226.8
2024-02-18T11:25:09.613Z,39272.6
2024-02-18T11:26:00.424Z,39318.4
2024-02-18T11:27:00.435Z,39870.1
2024-02-18T11:28:00.396Z,40421.7
2024-02-18T11:29:00.549Z,40339.6
2024-02-18T11:30:02.236Z,40257.5
2024-02-18T11:31:00.798Z,40175.3
2024-02-18T11:32:00.864Z,41023.1
2024-02-18T11:33:00.523Z,41870.9
2024-02-18T11:34:00.552Z,41999.2
2024-02-18T11:35:02.041Z,42127.5
2024-02-18T11:36:00.403Z,42255.7
2024-02-18T11:37:00.400Z,42051.9
2024-02-18T11:38:00.439Z,41848.1
2024-02-18T11:39:00.373Z,42696.7
2024-02-18T11:40:01.845Z,43545.3
2024-02-18T11:41:00.518Z,44393.9
2024-02-18T11:42:00.379Z,45201.5
2024-02-18T11:43:00.425Z,46009.1
2024-02-18T11:44:00.477Z,46301.5
2024-02-18T11:45:03.196Z,46593.8
2024-02-18T11:46:00.549Z,46886.1
2024-02-18T11:47:00.384Z,46263.5
2024-02-18T11:48:00.565Z,45640.8
2024-02-18T11:49:00.635Z,45865.7
2024-02-18T11:50:00.652Z,46090.7
2024-02-18T11:51:00.436Z,46315.6
2024-02-18T11:52:00.434Z,46432.6
2024-02-18T11:53:00.387Z,46549.6
2024-02-18T11:54:00.385Z,46020.8
2024-02-18T11:55:00.612Z,45492.0
2024-02-18T11:56:00.562Z,44963.2
2024-02-18T11:57:00.409Z,44205.7
2024-02-18T11:58:01.464Z,43448.1
2024-02-18T11:59:00.391Z,42989.3
2024-02-18T12:00:04.341Z,42530.4
2024-02-18T12:01:00.492Z,42071.5
2024-02-18T12:02:00.445Z,41828.1
2024-02-18T12:03:00.420Z,41584.7
2024-02-18T12:04:00.565Z,40729.9
2024-02-18T12:05:02.572Z,39875.0
2024-02-18T12:06:00.436Z,39020.1
2024-02-18T12:07:00.489Z,38272.3
2024-02-18T12:08:00.492Z,37524.4
2024-02-18T12:09:00.383Z,36950.7
2024-02-18T12:10:01.518Z,36377.1
2024-02-18T12:11:00.441Z,35803.4
2024-02-18T12:12:00.385Z,35057.5
2024-02-18T12:13:00.426Z,34311.7
2024-02-18T12:14:00.420Z,34037.2
2024-02-18T12:15:14.527Z,33762.7
2024-02-18T12:16:00.459Z,33488.3
2024-02-18T12:17:00.397Z,32949.6
2024-02-18T12:18:00.453Z,32410.9
2024-02-18T12:19:00.452Z,31981.7
2024-02-18T12:20:02.413Z,31552.5
2024-02-18T12:21:00.465Z,31123.3
2024-02-18T12:22:00.573Z,30409.7
2024-02-18T12:23:00.391Z,29696.0
2024-02-18T12:24:00.384Z,29117.5
2024-02-18T12:25:06.090Z,28539.1
2024-02-18T12:26:01.536Z,27960.6
2024-02-18T12:27:00.399Z,27757.4
2024-02-18T12:28:00.420Z,27554.2
2024-02-18T12:29:00.398Z,27370.5
2024-02-18T12:30:07.419Z,27186.7
2024-02-18T12:31:00.453Z,27003.0
2024-02-18T12:32:00.396Z,27024.8
2024-02-18T12:33:00.960Z,27046.6
2024-02-18T12:34:00.541Z,27376.6
2024-02-18T12:35:00.696Z,27706.6
2024-02-18T12:36:00.567Z,28036.6
2024-02-18T12:37:00.445Z,28317.8
2024-02-18T12:38:00.403Z,28599.0
2024-02-18T12:39:00.440Z,28940.6
2024-02-18T12:40:01.065Z,29282.2
2024-02-18T12:41:00.444Z,29623.8
2024-02-18T12:42:00.392Z,29914.6
2024-02-18T12:43:14.427Z,30205.4
2024-02-18T12:44:23.376Z,30356.6
2024-02-18T12:45:36.898Z,30507.8
2024-02-18T12:46:04.296Z,30659.0
2024-02-18T12:47:00.773Z,30674.3
2024-02-18T12:48:00.493Z,30689.7
2024-02-18T12:49:05.702Z,30140.9
2024-02-18T12:50:02.429Z,29592.2
2024-02-18T12:51:00.736Z,29043.5
2024-02-18T12:52:00.541Z,29004.3
2024-02-18T12:53:00.442Z,28965.2
2024-02-18T12:54:00.397Z,28966.0
2024-02-18T12:55:01.860Z,28966.8
2024-02-18T12:56:00.441Z,28967.6
2024-02-18T12:57:01.426Z,28756.3
2024-02-18T12:58:00.455Z,28545.1
2024-02-18T12:59:00.409Z,28582.7
2024-02-18T13:00:05.382Z,28620.3
2024-02-18T13:01:00.594Z,28657.9
2024-02-18T13:02:00.662Z,28504.0
2024-02-18T13:03:00.413Z,28350.1
2024-02-18T13:04:00.463Z,28653.6
2024-02-18T13:05:16.489Z,28957.1
2024-02-18T13:06:00.951Z,29260.5
2024-02-18T13:07:00.419Z,29369.1
2024-02-18T13:08:00.444Z,29477.6
2024-02-18T13:25:02.239Z,33831.0
2024-02-18T13:27:00.229Z,32894.7
2024-02-18T13:28:00.293Z,32426.5
2024-02-18T13:29:00.254Z,30642.6
2024-02-18T13:30:01.059Z,29453.3
2024-02-18T13:31:00.214Z,28603.9
2024-02-18T13:32:00.257Z,27432.5
2024-02-18T13:33:00.217Z,26521.4
2024-02-18T13:34:00.288Z,25955.1
2024-02-18T13:35:00.878Z,25491.7
2024-02-18T13:36:00.221Z,25105.6
2024-02-18T13:37:00.385Z,24769.2
2024-02-18T13:38:00.202Z,24480.9
2024-02-18T13:39:00.199Z,24381.8
2024-02-18T13:40:00.889Z,23659.3
2024-02-18T13:41:00.401Z,22936.9
2024-02-18T13:42:00.254Z,22114.0
2024-02-18T13:43:00.248Z,21291.1
2024-02-18T13:44:00.224Z,20953.1
2024-02-18T13:45:02.966Z,20615.1
2024-02-18T13:46:00.316Z,20277.1
2024-02-18T13:47:00.243Z,20213.7
2024-02-18T13:48:00.334Z,20150.2
2024-02-18T13:49:00.296Z,19977.9
2024-02-18T13:50:06.114Z,19805.7
2024-02-18T13:51:00.202Z,19633.4
2024-02-18T13:52:00.270Z,19739.5
2024-02-18T13:53:00.204Z,19845.5
2024-02-18T13:54:00.202Z,19556.6
2024-02-18T13:55:01.519Z,19267.7
2024-02-18T13:56:01.296Z,18978.7
2024-02-18T13:57:00.385Z,18820.5
2024-02-18T13:58:00.233Z,18662.2
2024-02-18T13:59:00.231Z,18551.5
2024-02-18T14:00:22.851Z,18440.7
2024-02-18T14:01:00.250Z,18330.0
2024-02-18T14:02:00.259Z,18095.9
2024-02-18T14:03:05.224Z,17861.9
2024-02-18T14:25:14.983Z,7948.0
2024-02-18T14:27:05.325Z,7907.7
2024-02-18T14:28:00.607Z,7887.5
2024-02-18T14:29:00.337Z,8068.8
2024-02-18T14:30:06.415Z,8189.7
2024-02-18T14:31:00.346Z,8276.0
2024-02-18T14:32:02.252Z,8360.6
2024-02-18T14:33:00.365Z,8426.4
2024-02-18T14:34:05.640Z,8544.2
2024-02-18T14:35:00.799Z,8640.5
2024-02-18T14:36:00.299Z,8720.8
2024-02-18T14:37:00.328Z,8802.2
2024-02-18T14:38:00.334Z,8872.0
2024-02-18T14:39:00.352Z,9063.1
2024-02-18T14:40:00.815Z,9315.9
2024-02-18T14:41:00.340Z,9568.6
2024-02-18T14:42:01.359Z,9758.6
2024-02-18T14:43:00.333Z,9948.6
2024-02-18T14:44:01.376Z,9945.7
2024-02-18T14:45:02.997Z,9942.7
2024-02-18T14:46:00.386Z,9939.8
2024-02-18T14:47:00.313Z,10104.1
2024-02-18T14:48:00.369Z,10268.3
2024-02-18T14:49:00.436Z,10322.9
2024-02-18T14:50:20.457Z,10377.4
2024-02-18T14:51:00.532Z,10431.9
2024-02-18T14:52:00.597Z,10381.6
2024-02-18T14:53:00.330Z,10331.3
2024-02-18T15:15:02.416Z,5849.0
2024-02-18T15:17:00.278Z,5807.3
2024-02-18T15:18:00.307Z,5786.5
2024-02-18T15:19:00.368Z,5592.4
2024-02-18T15:20:00.531Z,5463.0
2024-02-18T15:21:00.324Z,5370.6
2024-02-18T15:22:00.323Z,5329.0
2024-02-18T15:23:05.289Z,5296.7
2024-02-18T15:24:00.278Z,5275.8
2024-02-18T15:25:01.174Z,5258.7
2024-02-18T15:26:00.286Z,5244.5
2024-02-18T15:27:00.284Z,5148.2
2024-02-18T15:28:00.318Z,5065.7
2024-02-18T15:29:00.300Z,5030.7
2024-02-18T15:30:01.261Z,4943.5
2024-02-18T15:31:00.414Z,4856.3
2024-02-18T15:32:00.337Z,4805.7
2024-02-18T15:33:00.348Z,4755.0
2024-02-18T15:34:01.411Z,4837.1
2024-02-18T15:35:00.873Z,4919.1
2024-02-18T15:36:00.284Z,5001.2
2024-02-18T15:37:00.325Z,5064.1
2024-02-18T15:38:00.275Z,5126.9
2024-02-18T15:39:00.296Z,5242.1
2024-02-18T15:40:06.775Z,5357.3
2024-02-18T15:41:02.607Z,5472.5
2024-02-18T15:42:00.300Z,5543.0
2024-02-18T15:43:01.376Z,5613.5
2024-02-18T15:44:01.367Z,5602.1
2024-02-18T15:45:01.531Z,5590.7
2024-02-18T15:46:00.340Z,5579.3
2024-02-18T15:47:02.047Z,5538.4
2024-02-18T15:48:00.538Z,5497.5
2024-02-18T15:49:00.356Z,5370.7
2024-02-18T15:50:00.779Z,5243.9
2024-02-18T15:51:00.282Z,5117.1
2024-02-18T15:52:00.351Z,4936.3
2024-02-18T15:53:02.640Z,4755.4
2024-02-18T15:54:00.276Z,4539.1
2024-02-18T15:55:15.620Z,4322.9
2024-02-18T15:56:02.315Z,4106.6
2024-02-18T15:57:00.273Z,4011.3
2024-02-18T15:58:00.290Z,3916.1
2024-02-18T16:15:07.142Z,2310.0
2024-02-18T16:17:00.352Z,2114.7
2024-02-18T16:18:00.382Z,2017.0
2024-02-18T16:19:00.443Z,1886.0
2024-02-18T16:20:00.929Z,1798.7
2024-02-18T16:21:00.593Z,1736.3
2024-02-18T16:22:00.387Z,1662.5
2024-02-18T16:23:00.332Z,1605.1
2024-02-18T16:24:00.868Z,1541.9
2024-02-18T16:25:00.592Z,1490.2
2024-02-18T16:26:00.364Z,1447.1
2024-02-18T16:27:00.332Z,1391.8
2024-02-18T16:28:00.367Z,1344.4
2024-02-18T16:29:00.347Z,1292.5
2024-02-18T16:30:07.206Z,1176.2
2024-02-18T16:31:00.497Z,1059.9
2024-02-18T16:32:00.337Z,978.0
2024-02-18T16:33:01.353Z,896.1
2024-02-18T16:34:01.595Z,829.9
2024-02-18T16:35:00.894Z,763.8
2024-02-18T16:36:00.345Z,697.7
2024-02-18T16:37:00.408Z,648.7
2024-02-18T16:38:00.334Z,599.7
2024-02-18T16:39:00.570Z,551.1
2024-02-18T16:40:00.625Z,502.5
2024-02-18T16:41:01.649Z,453.9
2024-02-18T16:42:00.335Z,417.6
2024-02-18T16:43:00.321Z,381.3
2024-02-18T16:44:00.328Z,354.4
2024-02-18T16:45:01.780Z,327.5
2024-02-18T16:46:01.372Z,300.5
2024-02-18T16:47:00.438Z,276.2
2024-02-18T16:48:05.380Z,251.9
2024-02-18T16:49:00.427Z,232.5
2024-02-18T16:50:01.065Z,213.2
2024-02-18T16:51:00.577Z,193.9
2024-02-18T16:52:00.648Z,169.5
2024-02-18T16:53:00.330Z,145.2
2024-02-18T16:54:00.332Z,131.1
2024-02-18T16:55:01.899Z,116.9
2024-02-18T16:56:00.356Z,102.8
2024-02-18T16:57:00.332Z,92.3
2024-02-18T16:58:05.349Z,81.7
2024-02-18T16:59:00.328Z,72.1
2024-02-18T17:00:07.352Z,62.5
2024-02-18T17:01:00.384Z,52.9
2024-02-18T17:02:00.438Z,45.2
2024-02-18T17:03:00.516Z,37.5
2024-02-18T17:04:00.694Z,32.6
2024-02-18T17:05:01.637Z,27.7
2024-02-18T17:06:00.436Z,22.9
2024-02-18T17:07:00.347Z,20.0
2024-02-18T17:08:00.350Z,17.1
2024-02-18T17:09:00.355Z,15.2
2024-02-18T17:10:00.613Z,13.3
2024-02-18T17:11:01.537Z,11.3
2024-02-18T17:12:00.511Z,9.7
2024-02-18T17:13:00.383Z,8.1
2024-02-18T17:14:00.340Z,7.0
2024-02-18T17:15:02.988Z,5.9
2024-02-18T17:16:00.429Z,4.7
2024-02-18T17:17:01.392Z,3.9
2024-02-18T17:18:00.372Z,3.0
2024-02-18T17:19:00.538Z,2.6
2024-02-18T17:20:01.169Z,2.2
2024-02-18T17:21:00.376Z,1.8
2024-02-18T17:22:00.519Z,1.7
2024-02-18T17:23:00.356Z,1.5
2024-02-18T17:24:00.338Z,1.3
2024-02-18T17:25:00.673Z,1.1
2024-02-18T17:26:00.684Z,0.9
2024-02-18T17:27:00.360Z,0.8
2024-02-18T17:28:00.369Z,0.7
2024-02-18T17:29:00.370Z,0.6
2024-02-18T17:30:02.791Z,0.5
2024-02-18T17:32:00.507Z,0.4
2024-02-18T17:33:00.694Z,0.3
2024-02-18T17:35:10.720Z,0.2
2024-02-18T17:36:00.393Z,0.1
